createdAt,value
2023-02-18T00:01:27.245Z,100108.00
2023-02-18T00:03:55.293Z,100104.77
2023-02-18T00:06:28.293Z,100097.07
2023-02-18T00:08:58.957Z,100106.33
2023-02-18T00:11:27.997Z,100110.05
2023-02-18T00:13:57.606Z,100112.96
2023-02-18T00:16:26.326Z,100120.63
2023-02-18T00:19:02.207Z,100119.56
2023-02-18T00:21:30.493Z,100130.00
2023-02-18T00:23:58.606Z,100131.77
2023-02-18T00:26:26.977Z,100128.80
2023-02-18T00:28:55.147Z,100132.17
2023-02-18T00:31:25.336Z,100135.06
2023-02-18T00:33:53.506Z,100141.10
2023-02-18T00:36:22.180Z,100144.70
2023-02-18T00:38:52.301Z,100143.84
2023-02-18T00:41:21.026Z,100135.83
2023-02-18T00:43:48.985Z,100144.65
2023-02-18T00:46:17.030Z,100141.83
2023-02-18T00:48:45.088Z,100139.85
2023-02-18T00:51:13.281Z,100149.70
2023-02-18T00:53:41.569Z,100155.94
2023-02-18T00:56:10.039Z,100156.30
2023-02-18T00:58:38.528Z,100157.42
2023-02-18T01:01:07.600Z,100157.54
2023-02-18T01:03:39.548Z,100145.25
2023-02-18T01:06:08.120Z,100151.11
2023-02-18T01:08:36.855Z,100144.44
2023-02-18T01:11:05.334Z,100159.52
2023-02-18T01:13:33.610Z,100166.56
2023-02-18T01:16:01.652Z,100169.17
2023-02-18T01:18:30.984Z,100168.95
2023-02-18T01:20:59.199Z,100161.74
2023-02-18T01:23:27.374Z,100163.15
2023-02-18T01:25:56.299Z,100163.59
2023-02-18T01:28:25.974Z,100178.49
2023-02-18T01:30:54.476Z,100175.02
2023-02-18T01:33:22.676Z,100162.74
2023-02-18T01:35:50.722Z,100175.72
2023-02-18T01:38:18.777Z,100177.30
2023-02-18T01:40:51.646Z,100180.91
2023-02-18T01:43:20.100Z,100185.55
2023-02-18T01:45:52.496Z,100185.40
2023-02-18T01:48:52.815Z,100185.86
2023-02-18T01:51:38.657Z,100180.27
2023-02-18T01:54:15.919Z,100185.02
2023-02-18T01:56:49.636Z,100190.24
2023-02-18T01:59:22.059Z,100186.35
2023-02-18T02:01:50.269Z,100192.09
2023-02-18T02:04:18.519Z,100199.01
2023-02-18T02:06:46.558Z,100198.42
2023-02-18T02:09:16.377Z,100191.50
2023-02-18T02:11:54.826Z,100194.32
2023-02-18T02:15:01.920Z,100184.46
2023-02-18T02:17:42.068Z,100186.94
2023-02-18T02:20:13.109Z,100187.86
2023-02-18T02:22:46.747Z,100175.03
2023-02-18T02:25:20.342Z,100185.61
2023-02-18T02:28:00.316Z,100189.60
2023-02-18T02:30:40.755Z,100186.10
2023-02-18T02:33:46.375Z,100186.75
2023-02-18T02:36:29.125Z,100193.48
2023-02-18T02:39:17.812Z,100197.02
2023-02-18T02:42:08.962Z,100194.64
2023-02-18T02:45:14.919Z,100201.45
2023-02-18T02:47:49.226Z,100201.61
2023-02-18T02:50:18.183Z,100207.05
2023-02-18T02:52:59.621Z,100204.85
2023-02-18T02:55:27.910Z,100201.94
2023-02-18T02:57:56.611Z,100202.52
2023-02-18T03:01:02.681Z,100204.02
2023-02-18T03:03:58.530Z,100213.45
2023-02-18T03:06:30.024Z,100186.00
2023-02-18T03:09:11.187Z,100203.48
2023-02-18T03:12:23.432Z,100189.61
2023-02-18T03:14:54.951Z,100200.59
2023-02-18T03:17:57.112Z,100204.40
2023-02-18T03:20:38.539Z,100208.33
2023-02-18T03:23:08.473Z,100216.60
2023-02-18T03:25:37.810Z,100217.98
2023-02-18T03:28:26.270Z,100209.79
2023-02-18T03:31:17.344Z,100226.38
2023-02-18T03:33:54.658Z,100227.81
2023-02-18T03:36:22.705Z,100221.34
2023-02-18T03:39:00.325Z,100230.96
2023-02-18T03:41:29.836Z,100238.92
2023-02-18T03:44:08.514Z,100234.41
2023-02-18T03:46:37.805Z,100236.34
2023-02-18T03:49:06.309Z,100242.11
2023-02-18T03:51:34.557Z,100238.92
2023-02-18T03:54:02.592Z,100248.77
2023-02-18T03:56:30.654Z,100248.42
2023-02-18T03:58:58.730Z,100242.73
2023-02-18T04:01:27.139Z,100251.89
2023-02-18T04:03:55.777Z,100259.19
2023-02-18T04:06:23.872Z,100256.55
2023-02-18T04:08:51.892Z,100243.31
2023-02-18T04:11:19.956Z,100256.45
2023-02-18T04:13:47.926Z,100267.91
2023-02-18T04:16:15.912Z,100262.87
2023-02-18T04:18:43.972Z,100268.15
2023-02-18T04:21:12.618Z,100251.20
2023-02-18T04:23:40.723Z,100253.66
2023-02-18T04:26:09.106Z,100265.50
2023-02-18T04:28:37.533Z,100270.78
2023-02-18T04:31:05.629Z,100259.60
2023-02-18T04:33:33.749Z,100271.31
2023-02-18T04:36:01.839Z,100285.92
2023-02-18T04:38:30.023Z,100276.71
2023-02-18T04:40:58.304Z,100274.66
2023-02-18T04:43:26.496Z,100268.40
2023-02-18T04:45:54.806Z,100275.13
2023-02-18T04:48:22.986Z,100279.34
2023-02-18T04:50:50.997Z,100286.39
2023-02-18T04:53:19.185Z,100282.23
2023-02-18T04:55:51.976Z,100268.04
2023-02-18T04:58:20.542Z,100287.11
2023-02-18T05:00:48.590Z,100280.40
2023-02-18T05:03:16.619Z,100282.36
2023-02-18T05:05:45.946Z,100290.17
2023-02-18T05:08:13.958Z,100297.39
2023-02-18T05:10:41.941Z,100303.04
2023-02-18T05:13:09.956Z,100310.94
2023-02-18T05:15:38.060Z,100309.86
2023-02-18T05:18:06.156Z,100317.83
2023-02-18T05:20:34.266Z,100324.69
2023-02-18T05:23:02.645Z,100329.86
2023-02-18T05:25:30.623Z,100335.69
2023-02-18T05:27:58.798Z,100326.48
2023-02-18T05:30:26.848Z,100325.36
2023-02-18T05:32:55.224Z,100333.83
2023-02-18T05:35:23.201Z,100344.36
2023-02-18T05:37:51.331Z,100335.88
2023-02-18T05:40:19.614Z,100337.77
2023-02-18T05:42:47.850Z,100347.88
2023-02-18T05:45:16.031Z,100354.17
2023-02-18T05:47:44.271Z,100349.45
2023-02-18T05:50:12.376Z,100350.45
2023-02-18T05:52:40.540Z,100348.83
2023-02-18T05:55:08.558Z,100352.00
2023-02-18T05:57:36.711Z,100349.24
2023-02-18T06:00:06.316Z,100360.26
2023-02-18T06:02:34.446Z,100363.50
2023-02-18T06:05:02.892Z,100368.98
2023-02-18T06:07:31.197Z,100376.08
2023-02-18T06:09:59.473Z,100379.63
2023-02-18T06:12:29.842Z,100379.73
2023-02-18T06:14:58.078Z,100381.84
2023-02-18T06:17:26.417Z,100379.95
2023-02-18T06:19:54.567Z,100386.40
2023-02-18T06:22:22.642Z,100401.92
2023-02-18T06:24:50.734Z,100408.20
2023-02-18T06:27:18.728Z,100410.23
2023-02-18T06:29:46.889Z,100406.80
2023-02-18T06:32:15.039Z,100415.44
2023-02-18T06:34:43.314Z,100423.44
2023-02-18T06:37:11.412Z,100424.14
2023-02-18T06:39:39.802Z,100421.37
2023-02-18T06:42:07.899Z,100418.77
2023-02-18T06:44:37.815Z,100417.98
2023-02-18T06:47:06.151Z,100419.04
2023-02-18T06:49:34.338Z,100429.38
2023-02-18T06:52:02.577Z,100424.68
2023-02-18T06:54:30.533Z,100430.55
2023-02-18T06:56:58.858Z,100432.38
2023-02-18T06:59:27.204Z,100426.92
2023-02-18T07:01:55.417Z,100431.60
2023-02-18T07:04:23.596Z,100423.58
2023-02-18T07:06:51.750Z,100421.81
2023-02-18T07:09:19.891Z,100422.31
2023-02-18T07:11:48.247Z,100414.98
2023-02-18T07:14:16.337Z,100411.48
2023-02-18T07:16:44.350Z,100416.55
2023-02-18T07:19:14.582Z,100421.90
2023-02-18T07:21:43.413Z,100420.63
2023-02-18T07:24:11.437Z,100418.05
2023-02-18T07:26:39.485Z,100417.48
2023-02-18T07:29:07.624Z,100413.11
2023-02-18T07:31:35.859Z,100420.06
2023-02-18T07:34:04.009Z,100424.92
2023-02-18T07:36:32.299Z,100418.28
2023-02-18T07:39:00.227Z,100431.70
2023-02-18T07:41:28.265Z,100432.67
2023-02-18T07:43:56.690Z,100429.31
2023-02-18T07:46:24.599Z,100428.74
2023-02-18T07:48:52.575Z,100430.42
2023-02-18T07:51:20.642Z,100429.75
2023-02-18T07:53:49.659Z,100432.55
2023-02-18T07:56:18.595Z,100434.42
2023-02-18T07:58:46.718Z,100417.40
2023-02-18T08:01:15.161Z,100419.02
2023-02-18T08:03:43.489Z,100414.99
2023-02-18T08:06:21.936Z,100409.58
2023-02-18T08:08:52.600Z,100417.53
2023-02-18T08:11:20.711Z,100423.44
2023-02-18T08:13:49.195Z,100413.86
2023-02-18T08:16:18.843Z,100409.40
2023-02-18T08:18:48.027Z,100412.71
2023-02-18T08:21:17.166Z,100429.30
2023-02-18T08:23:45.388Z,100408.77
2023-02-18T08:26:13.879Z,100418.97
2023-02-18T08:28:45.357Z,100425.02
2023-02-18T08:31:27.149Z,100421.48
2023-02-18T08:33:56.167Z,100416.80
2023-02-18T08:36:24.571Z,100427.89
2023-02-18T08:38:52.616Z,100437.27
2023-02-18T08:41:20.977Z,100429.89
2023-02-18T08:43:49.084Z,100431.45
2023-02-18T08:46:25.020Z,100451.04
2023-02-18T08:49:01.734Z,100450.08
2023-02-18T08:51:30.167Z,100458.13
2023-02-18T08:53:58.707Z,100462.00
2023-02-18T08:56:26.928Z,100474.93
2023-02-18T08:58:54.973Z,100477.92
2023-02-18T09:01:23.136Z,100474.21
2023-02-18T09:03:51.383Z,100484.13
2023-02-18T09:06:19.433Z,100495.70
2023-02-18T09:08:47.719Z,100500.59
2023-02-18T09:11:16.154Z,100506.23
2023-02-18T09:13:44.243Z,100507.94
2023-02-18T09:16:18.535Z,100506.70
2023-02-18T09:18:47.344Z,100515.55
2023-02-18T09:21:16.152Z,100518.73
2023-02-18T09:23:44.218Z,100520.97
2023-02-18T09:26:18.353Z,100523.84
2023-02-18T09:28:46.570Z,100518.17
2023-02-18T09:31:16.867Z,100518.26
2023-02-18T09:33:53.056Z,100522.84
2023-02-18T09:36:21.407Z,100523.68
2023-02-18T09:38:49.840Z,100521.42
2023-02-18T09:41:39.162Z,100525.41
2023-02-18T09:44:21.374Z,100518.94
2023-02-18T09:46:57.232Z,100521.52
2023-02-18T09:49:27.014Z,100511.30
2023-02-18T09:51:55.614Z,100507.21
2023-02-18T09:54:23.737Z,100511.91
2023-02-18T09:56:51.912Z,100512.48
2023-02-18T09:59:21.218Z,100513.27
2023-02-18T10:01:52.327Z,100514.73
2023-02-18T10:04:30.226Z,100501.39
2023-02-18T10:06:58.470Z,100506.33
2023-02-18T10:09:44.730Z,100502.06
2023-02-18T10:12:15.834Z,100501.55
2023-02-18T10:14:44.750Z,100501.85
2023-02-18T10:17:14.051Z,100502.05
2023-02-18T10:19:42.493Z,100502.68
2023-02-18T10:22:13.431Z,100510.35
2023-02-18T10:25:00.186Z,100504.52
2023-02-18T10:27:34.372Z,100497.23
2023-02-18T10:30:16.538Z,100500.83
2023-02-18T10:32:46.362Z,100496.91
2023-02-18T10:35:39.320Z,100495.17
2023-02-18T10:38:38.321Z,100487.67
2023-02-18T10:41:10.486Z,100480.89
2023-02-18T10:43:56.455Z,100473.84
2023-02-18T10:46:57.727Z,100470.58
2023-02-18T10:49:32.451Z,100462.32
2023-02-18T10:52:01.438Z,100463.49
2023-02-18T10:54:49.912Z,100464.92
2023-02-18T10:57:23.107Z,100455.55
2023-02-18T11:00:02.341Z,100461.64
2023-02-18T11:02:32.649Z,100448.89
2023-02-18T11:05:02.087Z,100446.29
2023-02-18T11:07:32.565Z,100458.42
2023-02-18T11:10:33.232Z,100455.95
2023-02-18T11:13:03.268Z,100452.91
2023-02-18T11:15:31.465Z,100456.76
2023-02-18T11:18:23.793Z,100457.05
2023-02-18T11:21:02.683Z,100450.70
2023-02-18T11:23:32.226Z,100453.45
2023-02-18T11:26:07.369Z,100452.43
2023-02-18T11:28:45.528Z,100443.45
2023-02-18T11:31:24.506Z,100435.94
2023-02-18T11:33:58.301Z,100434.61
2023-02-18T11:36:31.582Z,100423.96
2023-02-18T11:39:07.909Z,100426.38
2023-02-18T11:41:39.512Z,100426.55
2023-02-18T11:44:35.385Z,100419.56
2023-02-18T11:47:18.202Z,100425.88
2023-02-18T11:50:00.906Z,100419.44
2023-02-18T11:52:36.351Z,100416.29
2023-02-18T11:55:08.439Z,100413.04
2023-02-18T11:57:38.582Z,100403.34
2023-02-18T12:00:20.980Z,100395.77
2023-02-18T12:02:49.836Z,100390.10
2023-02-18T12:05:27.793Z,100386.20
2023-02-18T12:08:00.364Z,100382.11
2023-02-18T12:10:40.540Z,100385.70
2023-02-18T12:13:17.490Z,100387.54
2023-02-18T12:16:03.816Z,100381.58
2023-02-18T12:18:36.869Z,100385.77
2023-02-18T12:21:15.551Z,100389.97
2023-02-18T12:24:17.394Z,100389.85
2023-02-18T12:27:05.743Z,100395.02
2023-02-18T12:29:49.692Z,100390.52
2023-02-18T12:32:48.842Z,100381.12
2023-02-18T12:35:22.976Z,100384.21
2023-02-18T12:38:06.362Z,100382.70
2023-02-18T12:40:42.611Z,100378.14
2023-02-18T12:43:35.142Z,100377.71
2023-02-18T12:46:21.733Z,100380.49
2023-02-18T12:49:08.597Z,100379.13
2023-02-18T12:51:42.532Z,100376.64
2023-02-18T12:54:31.743Z,100376.80
2023-02-18T12:57:16.852Z,100361.86
2023-02-18T13:00:14.469Z,100358.67
2023-02-18T13:03:09.927Z,100353.94
2023-02-18T13:05:46.789Z,100353.99
2023-02-18T13:08:41.144Z,100343.17
2023-02-18T13:11:46.629Z,100335.70
2023-02-18T13:14:24.775Z,100331.30
2023-02-18T13:16:54.747Z,100325.16
2023-02-18T13:19:25.345Z,100318.78
2023-02-18T13:21:56.209Z,100311.38
2023-02-18T13:24:30.029Z,100315.70
2023-02-18T13:27:20.177Z,100319.59
2023-02-18T13:30:07.970Z,100316.45
2023-02-18T13:32:38.117Z,100321.16
2023-02-18T13:35:21.218Z,100318.95
2023-02-18T13:38:19.235Z,100316.84
2023-02-18T13:40:48.323Z,100320.17
2023-02-18T13:43:29.525Z,100316.42
2023-02-18T13:46:09.878Z,100309.24
2023-02-18T13:48:52.145Z,100308.17
2023-02-18T13:51:29.647Z,100302.73
2023-02-18T13:54:13.329Z,100304.85
2023-02-18T13:56:57.465Z,100307.63
2023-02-18T13:59:36.509Z,100308.43
2023-02-18T14:02:29.748Z,100304.90
2023-02-18T14:05:14.950Z,100304.25
2023-02-18T14:07:53.308Z,100302.56
2023-02-18T14:10:21.612Z,100310.07
2023-02-18T14:12:58.405Z,100304.25
2023-02-18T14:15:26.863Z,100299.13
2023-02-18T14:18:12.863Z,100298.37
2023-02-18T14:20:40.842Z,100299.77
2023-02-18T14:23:18.635Z,100305.66
2023-02-18T14:25:53.859Z,100306.67
2023-02-18T14:28:34.071Z,100304.77
2023-02-18T14:31:06.140Z,100313.17
2023-02-18T14:33:35.811Z,100313.39
2023-02-18T14:36:18.572Z,100324.86
2023-02-18T14:39:11.476Z,100318.91
2023-02-18T14:42:04.074Z,100314.70
2023-02-18T14:44:38.512Z,100319.56
2023-02-18T14:47:06.990Z,100329.24
2023-02-18T14:49:52.117Z,100329.17
2023-02-18T14:52:31.064Z,100326.39
2023-02-18T14:55:00.902Z,100328.64
2023-02-18T14:57:51.930Z,100328.41
2023-02-18T15:00:22.587Z,100325.63
2023-02-18T15:02:53.682Z,100330.64
2023-02-18T15:05:29.953Z,100331.66
2023-02-18T15:08:09.099Z,100329.79
2023-02-18T15:10:43.214Z,100336.83
2023-02-18T15:13:22.153Z,100340.14
2023-02-18T15:15:52.318Z,100346.55
2023-02-18T15:18:52.056Z,100347.05
2023-02-18T15:21:31.689Z,100346.11
2023-02-18T15:24:06.195Z,100340.18
2023-02-18T15:26:37.042Z,100343.48
2023-02-18T15:29:06.241Z,100341.52
2023-02-18T15:31:39.074Z,100337.58
2023-02-18T15:34:31.422Z,100331.88
2023-02-18T15:37:00.418Z,100320.30
2023-02-18T15:39:28.937Z,100314.96
2023-02-18T15:42:02.936Z,100311.52
2023-02-18T15:44:33.182Z,100314.76
2023-02-18T15:47:07.744Z,100324.41
2023-02-18T15:49:37.629Z,100322.45
2023-02-18T15:52:06.421Z,100317.75
2023-02-18T15:54:35.557Z,100319.08
2023-02-18T15:57:05.681Z,100320.43
2023-02-18T15:59:35.135Z,100318.89
2023-02-18T16:02:03.231Z,100326.67
2023-02-18T16:04:33.720Z,100336.35
2023-02-18T16:07:04.746Z,100340.54
2023-02-18T16:09:33.964Z,100344.35
2023-02-18T16:12:05.750Z,100345.63
2023-02-18T16:14:46.711Z,100351.38
2023-02-18T16:17:25.123Z,100352.41
2023-02-18T16:20:04.712Z,100357.69
2023-02-18T16:22:37.129Z,100357.81
2023-02-18T16:25:13.936Z,100358.34
2023-02-18T16:28:04.520Z,100356.83
2023-02-18T16:30:33.813Z,100350.77
2023-02-18T16:33:02.096Z,100348.52
2023-02-18T16:35:43.939Z,100345.73
2023-02-18T16:38:21.338Z,100341.00
2023-02-18T16:40:49.536Z,100343.38
2023-02-18T16:43:22.299Z,100348.20
2023-02-18T16:45:55.639Z,100354.31
2023-02-18T16:48:30.415Z,100354.36
2023-02-18T16:51:17.539Z,100348.48
2023-02-18T16:53:45.728Z,100349.29
2023-02-18T16:56:21.774Z,100352.14
2023-02-18T16:58:51.114Z,100351.35
2023-02-18T17:01:30.658Z,100350.55
2023-02-18T17:03:59.175Z,100354.11
2023-02-18T17:06:27.351Z,100358.49
2023-02-18T17:08:56.489Z,100359.93
2023-02-18T17:11:34.139Z,100365.16
2023-02-18T17:14:05.182Z,100371.34
2023-02-18T17:16:33.533Z,100371.67
2023-02-18T17:19:02.071Z,100363.36
2023-02-18T17:21:30.288Z,100364.73
2023-02-18T17:23:58.373Z,100365.08
2023-02-18T17:26:27.875Z,100371.05
2023-02-18T17:28:57.403Z,100371.81
2023-02-18T17:31:27.710Z,100372.96
2023-02-18T17:33:57.065Z,100371.70
2023-02-18T17:36:25.399Z,100382.61
2023-02-18T17:38:53.890Z,100387.30
2023-02-18T17:41:21.975Z,100389.33
2023-02-18T17:43:50.232Z,100380.50
2023-02-18T17:46:18.896Z,100390.84
2023-02-18T17:48:47.465Z,100413.98
2023-02-18T17:51:24.378Z,100426.42
2023-02-18T17:53:52.622Z,100428.55
2023-02-18T17:56:20.728Z,100433.48
2023-02-18T17:58:49.066Z,100444.92
2023-02-18T18:01:18.864Z,100452.44
2023-02-18T18:03:47.160Z,100455.69
2023-02-18T18:06:17.033Z,100457.75
2023-02-18T18:08:45.435Z,100450.41
2023-02-18T18:11:15.984Z,100456.33
2023-02-18T18:13:44.014Z,100465.90
2023-02-18T18:16:13.311Z,100472.43
2023-02-18T18:18:41.689Z,100473.06
2023-02-18T18:21:21.463Z,100471.61
2023-02-18T18:23:50.138Z,100480.84
2023-02-18T18:26:18.246Z,100478.89
2023-02-18T18:28:46.315Z,100480.08
2023-02-18T18:31:15.940Z,100479.35
2023-02-18T18:33:51.681Z,100476.24
2023-02-18T18:36:20.221Z,100482.00
2023-02-18T18:38:48.421Z,100484.39
2023-02-18T18:41:18.186Z,100480.77
2023-02-18T18:43:46.186Z,100479.77
2023-02-18T18:46:14.770Z,100485.63
2023-02-18T18:48:42.894Z,100492.23
2023-02-18T18:51:21.939Z,100502.04
2023-02-18T18:53:49.925Z,100516.69
2023-02-18T18:56:18.034Z,100525.77
2023-02-18T18:58:46.475Z,100530.91
2023-02-18T19:01:19.696Z,100532.48
2023-02-18T19:03:48.640Z,100540.48
2023-02-18T19:06:17.144Z,100536.88
2023-02-18T19:08:47.934Z,100536.45
2023-02-18T19:11:16.331Z,100537.23
2023-02-18T19:13:46.749Z,100539.07
2023-02-18T19:16:22.593Z,100537.38
2023-02-18T19:18:51.769Z,100545.55
2023-02-18T19:21:20.086Z,100549.50
2023-02-18T19:23:48.054Z,100546.30
2023-02-18T19:26:16.903Z,100550.56
2023-02-18T19:28:45.536Z,100551.76
2023-02-18T19:31:14.094Z,100552.53
2023-02-18T19:33:45.672Z,100550.40
2023-02-18T19:36:14.953Z,100545.96
2023-02-18T19:38:43.621Z,100547.09
2023-02-18T19:41:13.225Z,100555.02
2023-02-18T19:43:42.004Z,100558.67
2023-02-18T19:46:14.523Z,100561.20
2023-02-18T19:48:50.033Z,100568.95
2023-02-18T19:51:19.003Z,100575.84
2023-02-18T19:53:47.188Z,100574.16
2023-02-18T19:56:15.582Z,100581.77
2023-02-18T19:58:44.446Z,100586.18
2023-02-18T20:01:14.482Z,100586.73
2023-02-18T20:03:42.852Z,100581.61
2023-02-18T20:06:17.828Z,100578.30
2023-02-18T20:08:46.686Z,100571.31
2023-02-18T20:11:15.550Z,100564.26
2023-02-18T20:13:43.872Z,100568.83
2023-02-18T20:16:12.291Z,100573.70
2023-02-18T20:18:40.484Z,100578.30
2023-02-18T20:21:11.130Z,100583.08
2023-02-18T20:23:39.697Z,100582.45
2023-02-18T20:26:09.564Z,100584.43
2023-02-18T20:28:37.690Z,100587.84
2023-02-18T20:31:12.222Z,100592.86
2023-02-18T20:33:42.579Z,100595.73
2023-02-18T20:36:11.138Z,100598.06
2023-02-18T20:38:40.288Z,100598.52
2023-02-18T20:41:11.566Z,100603.25
2023-02-18T20:43:40.309Z,100610.77
2023-02-18T20:46:10.944Z,100611.29
2023-02-18T20:48:39.322Z,100620.67
2023-02-18T20:51:10.112Z,100625.09
2023-02-18T20:53:39.824Z,100628.44
2023-02-18T20:56:07.809Z,100632.26
2023-02-18T20:58:36.047Z,100628.09
2023-02-18T21:01:07.455Z,100634.34
2023-02-18T21:03:35.987Z,100636.39
2023-02-18T21:06:08.898Z,100634.73
2023-02-18T21:08:40.364Z,100652.20
2023-02-18T21:11:21.320Z,100658.22
2023-02-18T21:13:50.188Z,100654.45
2023-02-18T21:16:20.203Z,100658.64
2023-02-18T21:18:48.730Z,100662.24
2023-02-18T21:21:16.927Z,100671.70
2023-02-18T21:23:44.915Z,100675.94
2023-02-18T21:26:15.014Z,100668.73
2023-02-18T21:28:43.387Z,100667.12
2023-02-18T21:31:30.521Z,100660.75
2023-02-18T21:33:59.462Z,100663.03
2023-02-18T21:36:27.613Z,100660.40
2023-02-18T21:38:58.670Z,100653.16
2023-02-18T21:41:26.874Z,100653.73
2023-02-18T21:43:55.849Z,100659.05
2023-02-18T21:46:28.588Z,100657.70
2023-02-18T21:49:03.214Z,100650.45
2023-02-18T21:52:08.357Z,100650.38
2023-02-18T21:54:39.375Z,100653.23
2023-02-18T21:57:10.048Z,100665.35
2023-02-18T21:59:38.569Z,100671.92
2023-02-18T22:02:07.350Z,100662.50
2023-02-18T22:04:36.498Z,100676.85
2023-02-18T22:07:05.442Z,100674.54
2023-02-18T22:09:35.805Z,100676.22
2023-02-18T22:12:04.308Z,100683.36
2023-02-18T22:14:32.591Z,100687.52
2023-02-18T22:17:00.678Z,100682.92
2023-02-18T22:19:28.762Z,100675.98
2023-02-18T22:21:56.967Z,100684.81
2023-02-18T22:24:24.955Z,100685.66
2023-02-18T22:26:53.788Z,100691.86
2023-02-18T22:29:21.957Z,100695.80
2023-02-18T22:31:50.365Z,100694.26
2023-02-18T22:34:18.780Z,100686.58
2023-02-18T22:36:46.955Z,100686.92
2023-02-18T22:39:15.450Z,100692.30
2023-02-18T22:41:44.572Z,100695.37
2023-02-18T22:44:14.008Z,100692.39
2023-02-18T22:46:42.462Z,100699.45
2023-02-18T22:49:11.165Z,100701.11
2023-02-18T22:51:40.455Z,100706.02
2023-02-18T22:54:14.672Z,100710.02
2023-02-18T22:56:43.841Z,100711.84
2023-02-18T22:59:12.586Z,100704.78
2023-02-18T23:01:41.985Z,100712.31
2023-02-18T23:04:14.229Z,100713.05
2023-02-18T23:06:44.399Z,100710.86
2023-02-18T23:09:17.593Z,100704.55
2023-02-18T23:11:45.842Z,100709.78
2023-02-18T23:14:19.771Z,100710.67
2023-02-18T23:17:12.969Z,100710.77
2023-02-18T23:19:45.776Z,100707.25
2023-02-18T23:22:16.171Z,100715.27
2023-02-18T23:24:44.861Z,100715.71
2023-02-18T23:27:14.271Z,100716.76
2023-02-18T23:29:42.346Z,100717.77
2023-02-18T23:32:10.437Z,100719.60
2023-02-18T23:34:39.247Z,100718.19
2023-02-18T23:37:07.860Z,100712.71
2023-02-18T23:39:36.028Z,100713.98
2023-02-18T23:42:04.165Z,100718.50
2023-02-18T23:44:32.880Z,100720.63
2023-02-18T23:47:01.138Z,100725.25
2023-02-18T23:49:29.225Z,100720.30
2023-02-18T23:51:58.484Z,100713.76
2023-02-18T23:54:27.110Z,100707.41
2023-02-18T23:56:55.376Z,100711.90
2023-02-18T23:59:23.489Z,100718.16
